WetterOnline ( http://www.wetteronline.ch )

Wetter aktuell Marnitz

Aktuelles Wetter: Marnitz (87m)

6-stündlich | Neueste Meldungen
Ortszeit Temperatur Wetter
Sa, 23.03. 1:00 7.3° C wolkenlos
Fr, 22.03. 19:00 9.2° C leicht bewölkt
Fr, 22.03. 13:00 9.8° C bedeckt
Fr, 22.03. 7:00 8.1° C bedeckt
Fr, 22.03. 1:00 9.6° C bedeckt
Do, 21.03. 19:00 10.9° C bedeckt
Do, 21.03. 13:00 12.5° C bedeckt
Do, 21.03. 7:00 8.5° C bedeckt
Ortszeit Temperatur Wetter
Sa, 23.03. 5:00 7.1° C wolkig
Sa, 23.03. 4:50 7.1° C wolkig
Sa, 23.03. 4:40 7.3° C wolkig
Sa, 23.03. 4:30 7.5° C wolkig
Sa, 23.03. 4:20 7.5° C wolkig
Sa, 23.03. 4:10 7.6° C wolkig
Sa, 23.03. 4:00 7.7° C fast wolkenlos
Sa, 23.03. 3:30 7.8° C wolkenlos
Sa, 23.03. 3:00 8.0° C wolkenlos
Sa, 23.03. 2:30 7.7° C wolkenlos
Sa, 23.03. 2:00 7.8° C wolkenlos
Ortszeit Relative Feuchte Sichtweite
Sa, 23.03. 1:00 93% 3.2 km
Fr, 22.03. 19:00 87% 6 km
Fr, 22.03. 13:00 85% 10 km
Fr, 22.03. 7:00 90% 8 km
Fr, 22.03. 1:00 84% 11 km
Do, 21.03. 19:00 77% 10 km
Do, 21.03. 13:00 74% 11 km
Do, 21.03. 7:00 92% 3.4 km
Ortszeit Relative Feuchte Sichtweite
Sa, 23.03. 5:00 95% 2.5 km
Sa, 23.03. 4:50 95% -
Sa, 23.03. 4:40 95% -
Sa, 23.03. 4:30 94% 3.0 km
Sa, 23.03. 4:20 94% -
Sa, 23.03. 4:10 93% -
Sa, 23.03. 4:00 93% 3.0 km
Sa, 23.03. 3:30 93% 3.2 km
Sa, 23.03. 3:00 92% 3.5 km
Sa, 23.03. 2:30 93% 3.5 km
Sa, 23.03. 2:00 92% 3.6 km
Ortszeit Niederschlagsmenge Niederschlagsart
Sa, 23.03. 1:00 0.0 l/m2 in 6 Std. -
Fr, 22.03. 19:00 0.0 l/m2 in 12 Std. -
Fr, 22.03. 13:00 0.0 l/m2 in 6 Std. -
Fr, 22.03. 7:00 0.0 l/m2 in 12 Std. -
Fr, 22.03. 1:00 0.0 l/m2 in 6 Std. -
Do, 21.03. 19:00 0.0 l/m2 in 12 Std. -
Do, 21.03. 13:00 0.0 l/m2 in 6 Std. -
Do, 21.03. 7:00 0.0 l/m2 in 12 Std. -
Ortszeit Niederschlagsmenge Niederschlagsart
Sa, 23.03. 5:00 0.0 l/m2 in 1 Std. -
Sa, 23.03. 4:50 keine Meldung -
Sa, 23.03. 4:40 keine Meldung -
Sa, 23.03. 4:30 0.0 l/m2 in 1 Std. -
Sa, 23.03. 4:20 keine Meldung -
Sa, 23.03. 4:10 keine Meldung -
Sa, 23.03. 4:00 0.0 l/m2 in 1 Std. -
Sa, 23.03. 3:30 0.0 l/m2 in 1 Std. -
Sa, 23.03. 3:00 0.0 l/m2 in 1 Std. -
Sa, 23.03. 2:30 0.0 l/m2 in 1 Std. -
Sa, 23.03. 2:00 0.0 l/m2 in 1 Std. -
Ortszeit Stärke Spitze Richtung
km/h Bft. km/h Grad Sektor
Sa, 23.03. 1:00 9 2 26 170° S
Fr, 22.03. 19:00 14 3 22 150° SO
Fr, 22.03. 13:00 7 2 18 200° S
Fr, 22.03. 7:00 4 1 18 360° N
Fr, 22.03. 1:00 11 2 22 330° NW
Do, 21.03. 19:00 14 3 36 320° NW
Do, 21.03. 13:00 11 2 36 280° W
Do, 21.03. 7:00 13 3 22 270° W
Ortszeit Stärke Spitze Richtung
km/h Bft. km/h Grad Sektor
Sa, 23.03. 5:00 4 1 22 220° SW
Sa, 23.03. 4:50 4 1 - 220° SW
Sa, 23.03. 4:40 7 2 - 210° SW
Sa, 23.03. 4:30 11 2 22 210° SW
Sa, 23.03. 4:20 11 2 - 210° SW
Sa, 23.03. 4:10 11 2 - 210° SW
Sa, 23.03. 4:00 9 2 26 210° SW
Sa, 23.03. 3:30 11 2 25 220° SW
Sa, 23.03. 3:00 15 3 26 220° SW
Sa, 23.03. 2:30 14 3 22 210° SW
Sa, 23.03. 2:00 9 2 20 210° SW
Ortszeit Untergrenze Bedeckung Gattung
total tief tief mittel hoch
Sa, 23.03. 1:00 - 0/8 0/8 - - -
Fr, 22.03. 19:00 8100 m 3/8 0/8 - - -
Fr, 22.03. 13:00 210 m 8/8 8/8 - - -
Fr, 22.03. 7:00 150 m 8/8 8/8 - - -
Fr, 22.03. 1:00 330 m 8/8 8/8 - - -
Do, 21.03. 19:00 510 m 8/8 8/8 - - -
Do, 21.03. 13:00 540 m 8/8 8/8 - - -
Do, 21.03. 7:00 510 m 8/8 8/8 - - -
Ortszeit Bedeckungsgrad in Achtel und Wolkenuntergrenze
Sa, 23.03. 5:00 8(10500m) 8(10500m)
Sa, 23.03. 4:50 8(10500m) 8(10500m)
Sa, 23.03. 4:40 8(10500m) 8(10500m)
Sa, 23.03. 4:30 6(10500m) 7(10500m) 7(12000m)
Sa, 23.03. 4:20 6(10500m) 7(10500m) 7(12000m)
Sa, 23.03. 4:10 4(10500m) 6(10500m) 7(12000m)
Sa, 23.03. 4:00 2(10500m) 4(12000m)
Sa, 23.03. 3:30 keine Wolken
Sa, 23.03. 3:00 keine Wolken
Sa, 23.03. 2:30 keine Wolken
Sa, 23.03. 2:00 keine Wolken
Ortszeit Luftdruck NN (hPa) Tendenz (hPa in 3 Std.)
Sa, 23.03. 1:00 1027 - 1,7
Fr, 22.03. 19:00 1029 - 1,5
Fr, 22.03. 13:00 1033 - 1,1
Fr, 22.03. 7:00 1034 + 1,1
Fr, 22.03. 1:00 1033 - 0,2
Do, 21.03. 19:00 1032 + 0,2
Do, 21.03. 13:00 1033 + 0,1
Do, 21.03. 7:00 1033 + 0,1
Ortszeit Luftdruck NN (hPa) Tendenz (hPa in 3 Std.)
Sa, 23.03. 5:00 1025 - 0,9
Sa, 23.03. 4:50 1025 keine Meldung
Sa, 23.03. 4:40 1025 keine Meldung
Sa, 23.03. 4:30 1025 - 1,4
Sa, 23.03. 4:20 1025 keine Meldung
Sa, 23.03. 4:10 1025 keine Meldung
Sa, 23.03. 4:00 1025 - 1,7
Sa, 23.03. 3:30 1025 - 2,1
Sa, 23.03. 3:00 1025 - 2,2
Sa, 23.03. 2:30 1026 - 2,3
Sa, 23.03. 2:00 1026 - 2,3
Ortszeit Schneehöhe (cm)
Sa, 23.03. 1:00 0
Fr, 22.03. 19:00 0
Fr, 22.03. 13:00 0
Fr, 22.03. 7:00 0
Fr, 22.03. 1:00 0
Do, 21.03. 19:00 0
Do, 21.03. 13:00 0
Do, 21.03. 7:00 0
Ortszeit Schneehöhe (cm)
Sa, 23.03. 5:00 0
Sa, 23.03. 4:50 0
Sa, 23.03. 4:40 0
Sa, 23.03. 4:30 0
Sa, 23.03. 4:20 0
Sa, 23.03. 4:10 0
Sa, 23.03. 4:00 0
Sa, 23.03. 3:30 0
Sa, 23.03. 3:00 0
Sa, 23.03. 2:30 0
Sa, 23.03. 2:00 0
Link zu dieser Seite / Seite empfehlen

Das Wetter in ...